• Join FlightAware (Why Join?)
  • Login
  • US Flag 
05:26AM EDT


 

Airport Tracker/Info


-or-


 

Live Flight TrackerFlight Track Log ✈ SWA2596 ✈ 21-Jun-2013 ✈ KSMF - KLAX

Flight Track Log - Related Links

Times and Time Zones

All times are in EDT time to prevent confusion due to time zone crossing. See the SWA2596 flight status page for this flight to view local times or setup timezone preferences in your user account.

Time Position Orientation Groundspeed Altitude Reporting Facility
EDT Latitude Longitude Course Direction KTS MPH feet Rate Location/Type
05:16PM 38.7500 -121.5667 38° Northeast 219 252 2,800  Level Northern Cal TRACON
05:18PM 38.7611 -121.4303 84° East 262 302 6,800 2,760 Climbing Oakland Center
05:19PM 38.7181 -121.3258 118° Southeast 300 345 10,500 3,000 Climbing Oakland Center
05:20PM 38.6553 -121.2419 134° Southeast 330 380 13,000 2,700 Climbing Oakland Center
05:21PM 38.5781 -121.1386 134° Southeast 372 428 16,100 3,120 Climbing Oakland Center
05:22PM 38.5006 -121.0361 134° Southeast 392 451 19,400 2,700 Climbing Oakland Center
05:23PM 38.4214 -120.9311 134° Southeast 402 463 21,800 2,220 Climbing Oakland Center
05:24PM 38.3350 -120.8186 134° Southeast 428 493 24,000 2,220 Climbing Oakland Center
05:25PM 38.2461 -120.7008 134° Southeast 453 521 26,400 2,220 Climbing Oakland Center
05:26PM 38.1453 -120.5967 141° Southeast 464 534 28,600 1,980 Climbing Oakland Center
05:27PM 38.0403 -120.4969 143° Southeast 471 542 30,500 1,980 Climbing Oakland Center
05:28PM 37.9358 -120.3947 142° Southeast 475 547 32,700 2,040 Climbing Oakland Center
05:29PM 37.8125 -120.2725 142° Southeast 468 539 34,700 1,740 Climbing Oakland Center
05:30PM 37.7081 -120.1731 143° Southeast 470 541 36,400 1,080 Climbing Oakland Center
05:31PM 37.6050 -120.0731 142° Southeast 468 539 37,000 240 Climbing Oakland Center
05:32PM 37.5011 -119.9753 143° Southeast 466 536 37,000  Level Oakland Center
05:33PM 37.3986 -119.8764 143° Southeast 464 534 37,000  Level Oakland Center
05:34PM 37.2981 -119.7897 146° Southeast 457 526 37,000  Level Oakland Center
05:35PM 37.1539 -119.7711 174° South 434 499 37,000  Level Oakland Center
05:36PM 37.0328 -119.7622 177° South 435 501 37,000  Level Oakland Center
05:37PM 36.9125 -119.7542 177° South 432 497 37,000  Level Oakland Center
05:38PM 36.7911 -119.7453 177° South 436 502 37,000  Level Oakland Center
05:39PM 36.6683 -119.7375 177° South 439 505 37,000  Level Oakland Center
05:40PM 36.5458 -119.7294 177° South 440 506 37,000  Level Oakland Center
05:41PM 36.4231 -119.7197 176° South 442 509 37,000  Level Oakland Center
05:42PM 36.3011 -119.7125 177° South 439 505 37,000  Level Oakland Center
05:43PM 36.1547 -119.7031 177° South 437 503 37,000  Level Oakland Center
05:44PM 36.0336 -119.6936 176° South 435 501 37,000  Level Oakland Center
05:45PM 35.9119 -119.6864 177° South 436 502 37,000  Level Oakland Center
05:46PM 35.7906 -119.6783 177° South 434 499 37,000  Level Oakland Center
05:47PM 35.6683 -119.6686 176° South 437 503 37,000  Level Oakland Center
05:48PM 35.5467 -119.6353 167° South 460 529 37,000 -120 Level Oakland Center
05:49PM 35.4275 -119.5686 155° Southeast 467 537 36,800 -600 Descending Los Angeles Center
05:50PM 35.3086 -119.5003 155° Southeast 469 540 35,800 -1,020 Descending Los Angeles Center
05:51PM 35.1872 -119.4314 155° Southeast 474 545 34,800 -1,680 Descending Los Angeles Center
05:52PM 35.0453 -119.3433 153° Southeast 477 549 32,400 -2,520 Descending Los Angeles Center
05:54PM 34.9278 -119.2633 151° Southeast 481 554 29,200 -2,820 Descending Los Angeles Center
05:55PM 34.7675 -119.1547 151° Southeast 471 542 25,400 -2,820 Descending Los Angeles Center
05:56PM 34.6531 -119.0792 151° Southeast 455 524 22,800 -2,460 Descending Los Angeles Center
05:58PM 34.4444 -118.9411 151° Southeast 415 478 17,900 -2,520 Descending Los Angeles Center
05:59PM 34.3256 -118.8678 153° Southeast 397 457 15,100 -2,520 Descending Los Angeles Center
06:00PM 34.2228 -118.8328 164° South 386 444 12,700 -1,980 Descending Los Angeles Center
06:01PM 34.1294 -118.7844 157° South 364 419 11,100 -1,320 Descending Los Angeles Center
06:02PM 34.0692 -118.6975 130° Southeast 335 386 10,000 -1,020 Descending Los Angeles Center
06:03PM 34.0425 -118.5883 106° East 315 362 9,000 -1,200 Descending Los Angeles Center
06:04PM 34.0178 -118.4892 107° East 308 354 7,600 -1,320 Descending Los Angeles Center
06:05PM 34.0147 -118.4069 93° East 286 329 6,300 -960 Descending Los Angeles Center
06:06PM 34.0239 -118.2994 84° East 270 311 5,600 -900 Descending Los Angeles Center
06:07PM 34.0069 -118.2403 109° East 238 274 4,500 -1,260 Descending Los Angeles Center
06:08PM 33.9675 -118.2783 219° Southwest 208 239 3,000 -1,320 Descending Los Angeles Center
06:09PM 33.9592 -118.3308 259° West 176 203 1,800 -1,260 Descending Los Angeles Center
06:10PM 33.9553 -118.3808 265° West 163 188 500 -840 Descending Los Angeles Center
06:12PM 33.9497 -118.4317 263° West 153 176 100 -420 Descending Los Angeles Center
06:13PM 33.9425 -118.4081 90° East  Level Estimated